Tiempo atmosférico en la estación meteorológica de Girona Aeropuerto, Girona (143 m.)



Fecha
DESCASC
Temp. máxima en grados centígrados (hora)
DESCASC
Temp. mínima en grados centígrados (hora)
DESCASC
Temp. media en grados centígrados
DESCASC
Racha de viento máxima en m/sg (hora)
DESCASC
Velocidad máxima media en intervalos de 10 minutos(hora)
DESCASC
Precipitaciones diarias en mm
DESCASC
Precipitaciones de 00:00 a 06:00 en mm
DESCASC
Precipitaciones de 06:00 a 12:00 en mm
DESCASC
Precipitaciones de 12:00 a 18:00 en mm
DESCASC
Precipitaciones de 18:00 a 24:00 en mm
DESCASC
14-12-2019 16.6 (14:30) 5.3 (07:10) 11 8.33 (10:40) 3.89 (10:40) 0 0 0 0 0
13-12-2019 18.2 (14:40) 5.5 (04:40) 11.9 9.72 (09:50) 5.28 (10:20) 0 0 0 0 0
12-12-2019 12.4 (13:30) 0.7 (06:40) 6.5 7.22 (21:00) 4.72 (22:00) 0 0 0 0 0
11-12-2019 11.1 (14:40) -0.1 (00:00) 5.5 6.11 (14:00) 4.17 (14:00) 0.8 0 0 0.4 0.4
10-12-2019 14.5 (15:50) 1.1 (00:00) 7.8 9.72 (04:50) 6.94 (00:20) 0 0 0 0 0
09-12-2019 16 (14:40) 3.1 (00:00) 9.5 9.72 (23:20) 6.94 (23:50) 0 0 0 0 0
08-12-2019 16.4 (15:40) 0.6 (00:00) 8.5 3.61 (19:50) 2.5 (08:30) 0 0 0 0 0
07-12-2019 16.7 (14:40) 1.7 (00:00) 9.2 5 (15:50) 4.17 (15:50) 0 0 0 0 0
06-12-2019 16.3 (14:00) 4.4 (00:00) 10.3 5.83 (16:00) 4.44 (16:00) 0 0 0 0 0
05-12-2019 11.1 (23:50) 8.6 (00:00) 9.9 13.89 (11:40) 9.72 (11:40) 18.9 15.6 2.4 0.9 0
04-12-2019 10.9 (00:00) 8.4 (00:00) 9.6 16.11 (17:10) 10.83 (16:20) 57.8 1.6 9.5 18.9 27.8
03-12-2019 11.6 (14:50) 0.3 (00:00) 6 9.17 (09:20) 6.39 (23:59) 0 0 0 0 0
02-12-2019 15 (15:40) 3.4 (00:00) 9.2 9.17 (14:40) 5.56 (14:40) 0 0 0 0 0
01-12-2019 16.3 (14:20) 6 (00:00) 11.1 6.67 (05:00) 4.72 (06:00) 0.1 0 0.1 0 0
30-11-2019 19.2 (14:10) 5.7 (00:00) 12.5 10.28 (15:30) 8.06 (15:30) 0 0 0 0 0
29-11-2019 17 (13:40) 8.4 (00:00) 12.7 6.67 (00:40) 4.72 (00:30) 0 0 0 0 0
28-11-2019 18.9 (14:10) 6 (00:00) 12.4 7.22 (04:40) 4.44 (05:20) 0 0 0 0 0
27-11-2019 18.3 (12:30) 8.8 (00:00) 13.5 9.17 (08:30) 5.83 (00:10) 0 0 0 0 0
26-11-2019 19.8 (15:10) 2.3 (00:00) 11 11.67 (23:10) 7.78 (23:10) 0 0 0 0 0
25-11-2019 18.9 (16:00) 2.6 (00:00) 10.7 3.61 (02:50) 2.5 (02:30) 0 0 0 0 0
24-11-2019 16.8 (14:30) 4.5 (00:00) 10.6 5 (03:00) 3.89 (16:50) 0 0 0 0 0
23-11-2019 16.5 (14:00) 9 (00:00) 12.8 16.11 (01:10) 10.28 (01:30) 7.4 7.4 0 0 0
22-11-2019 15.1 (14:50) 3.5 (00:00) 9.3 14.44 (23:40) 10.83 (23:50) 16.8 0 3.8 0 13
21-11-2019 15.8 (13:10) 1 (00:00) 8.4 10.28 (13:00) 6.67 (13:40) 0 0 0 0 0
20-11-2019 13.8 (13:50) -2.5 (-00:0) 5.7 12.5 (14:10) 9.17 (14:10) 0 0 0 0 0
19-11-2019 13.5 (14:40) -2.5 (-00:0) 5.5 6.67 (14:30) 5 (16:10) 0 0 0 0 0
18-11-2019 12.2 (14:20) 1.1 (00:00) 6.6 15.28 (12:50) 10 (12:50) 0 0 0 0 0
17-11-2019 13.4 (13:20) -0.5 (-00:0) 6.4 5 (10:30) -- (--) 0 0 0 0 0
16-11-2019 14.1 (14:20) 0 (00:00) 7.1 7.78 (14:50) 5.83 (15:00) 0 0 0 0 0

Gráficas

Temp. máximas Temp. mínimas Temp. medias Precipitaciones Rachas de viento máximas Velocidades máximas media en intervalos de 10 minutos

Datos horarios

Fecha y hora oficial Temperatura (ºC) Velocidad del viento (km/h) Dirección del viento Racha (km/h) Dirección de racha Precipitación (mm) Presión (hPa) Tendencia (hPa) Humedad (%)
2019-12-15 23:00:00 6.1 4 Sur 17 Sur 0 995.8 0 93
2019-12-15 22:00:00 6.2 0 Calma 8 Este 0 995.8 0.4 97
2019-12-15 21:00:00 6.3 4 Este 5 Este 0 995.8 0.5 94
2019-12-15 20:00:00 7.5 0 Calma 5 Nordeste 0 995.8 0.6 92
2019-12-15 19:00:00 9 0 Calma 9 Sur 0 995.4 0 84
2019-12-15 18:00:00 11.2 0 Calma 8 Este 0 995.3 -0.1 85
2019-12-15 17:00:00 14.1 7 Sur 21 Sur 0 995.2 -0.6 73
2019-12-15 16:00:00 16.7 13 Sur 18 Sudoeste 0 995.4 -0.9 60
2019-12-15 15:00:00 17.3 10 Sur 15 Sur 0 995.4 -1.6 56
2019-12-15 14:00:00 16.7 8 Sudoeste 13 Sur 0 995.8 -1.7 56
2019-12-15 13:00:00 15.7 6 Sur 11 Sudoeste 0 996.3 -0.9 63
2019-12-15 12:00:00 14 6 Sur 11 Sudeste 0 997 0.3 67
2019-12-15 11:00:00 11.2 8 Sur 13 Sur 0 997.5 1.4 79
2019-12-15 10:00:00 7.8 3 Norte 13 Oeste 0 997.2 1.5 95
2019-12-15 09:00:00 4.6 5 Oeste 11 Sudoeste 0 996.7 1.3 97
2019-12-15 08:00:00 3 3 Sudeste 9 Norte 0 996.1 0.9 98
2019-12-15 07:00:00 3.8 8 Oeste 11 Sudoeste 0 995.7 0.4 98
2019-12-15 06:00:00 3.6 4 Sudeste 13 Sudoeste 0 995.4 0 96
2019-12-15 05:00:00 4.6 10 Sudoeste 13 Sudoeste 0 995.2 -0.2 98
2019-12-15 04:00:00 4.9 4 Sudoeste 13 Sur 0 995.3 -0.9 97
2019-12-15 03:00:00 4.3 5 Nordeste 15 Nordeste 0 995.4 -1.5 96
2019-12-15 02:00:00 5.6 3 Oeste 11 Oeste 0 995.4 -2 97
2019-12-15 01:00:00 6.2 6 Sudoeste 11 Oeste 0 996.2 -1.3 97
2019-12-15 00:00:00 6.1 4 Sur 15 Sur 0 996.9 -1.1 95
2019-12-14 23:00:00 6.8 8 Oeste 18 Oeste 0 997.4 -0.5 92
2019-12-14 22:00:00 7.4 11 Sudoeste 13 Sudoeste 0 997.5 -0.3 91
2019-12-14 21:00:00 8.8 0 Calma 9 Sudeste 0 998 0.3 85
2019-12-14 20:00:00 10 0 Calma 15 Noroeste 0 997.9 0.3 80
2019-12-14 19:00:00 12.4 11 Noroeste 22 Norte 0 997.8 0.3 71
2019-12-14 18:00:00 12.9 10 Noroeste 18 Norte 0 997.7 0.8 70
2019-12-14 17:00:00 14.2 7 Noroeste 17 Norte 0 997.6 0.4 67
2019-12-14 16:00:00 15.7 3 Norte 15 Nordeste 0 997.5 0.2 63
2019-12-14 15:00:00 16.3 8 Norte 17 Noroeste 0 996.9 -0.6 60
2019-12-14 14:00:00 16.2 0 Calma 9 Oeste 0 997.2 0 67
2019-12-14 13:00:00 14.8 2 Norte 9 Sudoeste 0 997.3 1.4 71
2019-12-14 12:00:00 13.5 6 Sudeste 15 Norte 0 997.5 2 74
2019-12-14 11:00:00 13.7 9 Sudeste 30 Norte 0 997.2 3.4 69
2019-12-14 10:00:00 11.8 7 Norte 11 Noroeste 0 995.9 3 82
2019-12-14 09:00:00 6.7 9 Oeste 15 Sur 0 995.5 3.5 96
2019-12-14 08:00:00 6.8 8 Oeste 13 Oeste 0 993.8 2.6 95
2019-12-14 07:00:00 6.6 10 Sur 15 Noroeste 0 992.9 1.6 82
2019-12-14 06:00:00 7.5 3 Sudoeste 21 Norte 0 992 0.7 82
2019-12-14 05:00:00 11.3 13 Norte 28 Norte 0 991.2 1.2 80
2019-12-14 04:00:00 7.2 6 Oeste 15 Oeste 0 991.3 1.3 97
2019-12-14 03:00:00 6.8 0 Calma 13 Norte 0 991.3 1.6 94
2019-12-14 02:00:00 7.6 5 Sudoeste -- -- -- 990 0.8 97
2019-12-14 01:00:00 6.9 3 Sur 8 Sur 0 990 1.3 98
2019-12-14 00:00:00 7.3 3 Noroeste 13 Nordeste 0 989.7 1.4 96
2019-12-13 23:00:00 8.1 7 Norte 17 Este 0 989.2 1.3 96
2019-12-13 22:00:00 9 6 Noroeste 11 Oeste 0 988.7 1.3 96
2019-12-13 21:00:00 9.4 4 Nordeste 13 Norte 0 988.3 1.8 96
2019-12-13 20:00:00 10.1 2 Oeste 15 Sudoeste 0 987.9 2.4 90
2019-12-13 19:00:00 11.4 2 Sur 11 Sur 0 987.4 2.9 86
2019-12-13 18:00:00 12.2 4 Sur 18 Sudeste 0 986.5 2.9 82
2019-12-13 17:00:00 14.6 9 Sudeste 21 Sudeste 0 985.5 2.3 71
2019-12-13 16:00:00 16.5 13 Sudeste 22 Sudeste 0 984.5 1 64
2019-12-13 15:00:00 17.8 12 Sudeste 18 Sudeste 0 983.6 1 58
2019-12-13 14:00:00 17.3 6 Sur 28 Noroeste 0 983.2 0.4 60
2019-12-13 13:00:00 14.7 14 Oeste 28 Noroeste 0 983.5 1.2 66
2019-12-13 12:00:00 14.2 9 Noroeste 30 Noroeste 0 982.6 0.5 67
2019-12-13 11:00:00 12.8 13 Noroeste 35 Oeste 0 982.8 1 68
2019-12-13 10:00:00 13.3 16 Noroeste 35 Noroeste 0 982.3 1.1 65
2019-12-13 09:00:00 11.4 10 Noroeste 26 Noroeste 0 982.1 0.7 69
2019-12-13 08:00:00 10.1 9 Este 24 Noroeste 0 981.8 -0.8 72
2019-12-13 07:00:00 10 9 Norte 17 Norte 0 981.2 -2.7 70
2019-12-13 06:00:00 10.3 6 Norte 33 Oeste 0 981.4 -3.1 66
2019-12-13 05:00:00 6.1 8 Sudoeste 17 Oeste 0 982.6 -1.9 86
2019-12-13 04:00:00 6 0 Calma 11 Oeste 0 983.9 -1.4 85
2019-12-13 03:00:00 6.2 6 Nordeste 9 Nordeste 0 984.5 -1.4 84
2019-12-13 02:00:00 7.3 8 Este -- -- -- 984.5 -1.2 80
2019-12-13 01:00:00 7.2 4 Nordeste 8 Noroeste 0 985.3 -0.7 78
2019-12-13 00:00:00 8.8 5 Noroeste 13 Oeste 0 985.9 -0.6 70
2019-12-12 23:00:00 9.8 9 Oeste 26 Oeste 0 985.7 -1.6 67
2019-12-12 22:00:00 10 17 Oeste 26 Oeste 0 986 -2.3 66
2019-12-12 21:00:00 10.3 14 Sudoeste 26 Sudoeste 0 986.5 -3 66
2019-12-12 20:00:00 9.4 8 Sur 18 Sudoeste 0 987.3 -3.1 73
2019-12-12 19:00:00 9.6 10 Sudoeste 17 Sudoeste 0 988.3 -3.5 71
2019-12-12 18:00:00 7.6 6 Sudoeste 9 Sudeste 0 989.5 -3.1 83
2019-12-12 17:00:00 8.7 6 Sudeste 9 Sudeste 0 990.4 -3.7 80
2019-12-12 16:00:00 10.3 3 Oeste 13 Noroeste 0 991.8 -3.4 70
2019-12-12 15:00:00 10.8 3 Oeste 15 Sur 0 992.6 -4.2 70
2019-12-12 14:00:00 11.8 6 Sur 11 Sudoeste 0 994.1 -3.7 66
2019-12-12 13:00:00 11.4 6 Sur 13 Sur 0 995.2 -3.6 74
2019-12-12 12:00:00 9.7 7 Sudoeste 11 Sudoeste 0 996.8 -1.7 82
2019-12-12 11:00:00 7 0 Calma 5 Este 0 997.8 -0.9 95
2019-12-12 10:00:00 3.1 5 Sudoeste 8 Oeste 0 998.8 0.4 100
2019-12-12 09:00:00 1.6 4 Sur 11 Nordeste 0 998.5 0.3 100
2019-12-12 08:00:00 1.3 6 Sur 13 Sudoeste 0 998.7 -0.1 100
2019-12-12 07:00:00 1.3 10 Sudoeste 15 Oeste 0 998.4 -0.3 100
2019-12-12 06:00:00 1.7 9 Nordeste 11 Nordeste 0 998.2 -0.4 100
2019-12-12 05:00:00 1.8 6 Este 15 Noroeste 0 998.8 0 100
2019-12-12 04:00:00 1.5 4 Sudoeste 11 Este 0 998.7 -0.6 100
2019-12-12 03:00:00 2.8 7 Oeste 11 Oeste 0 998.6 -1.2 100
2019-12-12 02:00:00 2.2 6 Sudoeste 11 Oeste 0 998.8 -1.1 100
2019-12-12 01:00:00 2.7 5 Nordeste 9 Este 0 999.3 -0.9 100
2019-12-12 00:00:00 3.1 7 Nordeste 9 Nordeste 0 999.8 -0.3 100
2019-12-11 23:00:00 3.7 2 Nordeste 9 Sudeste 0 999.9 -0.3 99
2019-12-11 22:00:00 4 4 Sudoeste 13 Oeste 0 1000.2 0.2 99
2019-12-11 21:00:00 5.3 4 Nordeste 9 Oeste 0 1000.1 0.6 98
2019-12-11 20:00:00 6.3 6 Sudoeste 11 Sudoeste 0 1000.2 1.5 97
2019-12-11 19:00:00 7.7 9 Sur 17 Este 0.4 1000 1.4 93
2019-12-11 18:00:00 8.1 3 Sudoeste 13 Oeste 0.2 999.5 1.3 91
2019-12-11 17:00:00 8.9 8 Oeste 11 Oeste 0.2 998.7 0.6 84
2019-12-11 16:00:00 10.1 3 Oeste 8 Oeste 0 998.6 0.4 74
2019-12-11 15:00:00 10.8 6 Nordeste 21 Norte 0 998.2 -1.1 64
2019-12-11 14:00:00 10.3 15 Norte 22 Norte 0 998.1 -2.4 65
2019-12-11 13:00:00 9.9 12 Nordeste 17 Nordeste 0 998.2 -2.7 73
2019-12-11 12:00:00 9.4 0 Calma 8 Nordeste 0 999.3 -2.1 70
2019-12-11 11:00:00 6.8 5 Sudoeste 11 Sudoeste 0 1000.5 -1.5 82
2019-12-11 10:00:00 4 3 Oeste 11 Oeste 0 1000.9 -1.2 93
2019-12-11 09:00:00 1.7 3 Sur 9 Nordeste 0 1001.4 -1.2 97
2019-12-11 08:00:00 1.7 6 Norte 9 Norte 0 1002 -1.1 98
2019-12-11 07:00:00 0.6 4 Oeste 9 Sur 0 1002.1 -2 97
2019-12-11 06:00:00 1.6 2 Norte 8 Oeste 0 1002.6 -2 95
2019-12-11 05:00:00 1.1 0 Calma 5 Oeste 0 1003.1 -2.1 97
2019-12-11 04:00:00 0.7 0 Calma -- -- 0 1004.1 -1.6 95
2019-12-11 03:00:00 0.7 8 Oeste 11 Oeste 0 1004.6 -1.4 97
2019-12-11 02:00:00 0.9 6 Oeste -- -- -- 1005.2 -0.9 97
2019-12-11 01:00:00 1.7 0 Calma 9 Oeste 0 1005.7 -0.5 94
2019-12-11 00:00:00 1.7 0 Calma 9 Este 0 1006 0 97
2019-12-10 23:00:00 1.5 3 Nordeste 9 Nordeste 0 1006.1 -0.3 96
2019-12-10 22:00:00 2.9 2 Este 5 Norte 0 1006.2 -0.2 89
2019-12-10 21:00:00 5.1 4 Oeste 9 Oeste 0 1006 0 81
2019-12-10 20:00:00 5.7 8 Oeste 11 Sudoeste 0 1006.4 0.5 83
2019-12-10 19:00:00 7.5 3 Sur 13 Noroeste 0 1006.4 0.8 76
2019-12-10 18:00:00 7.7 0 Calma 9 Sudoeste 0 1006 0.1 78
2019-12-10 17:00:00 11.7 7 Sudoeste 11 Sudoeste 0 1005.9 -0.3 66
2019-12-10 16:00:00 14.4 9 Sudoeste 15 Sur 0 1005.6 -1.5 57
2019-12-10 15:00:00 14.3 11 Sudoeste 18 Sudoeste 0 1005.9 -1.8 58
2019-12-10 14:00:00 13.7 15 Sudoeste 24 Sudoeste 0 1006.2 -1.8 59
2019-12-10 13:00:00 13.1 15 Sudoeste 26 Sudoeste 0 1007.1 -0.5 61
2019-12-10 12:00:00 12 14 Sudoeste 21 Sudoeste 0 1007.7 0 57
2019-12-10 11:00:00 11.4 8 Oeste 13 Oeste 0 1008 0.5 51
2019-12-10 10:00:00 7.6 9 Oeste 21 Oeste 0 1007.6 0.2 68
2019-12-10 09:00:00 6.8 7 Norte 21 Norte 0 1007.7 0.9 70
2019-12-10 08:00:00 6.8 16 Norte 35 Norte 0 1007.5 0.8 71
2019-12-10 07:00:00 7.1 17 Norte 30 Norte 0 1007.4 1.1 70
2019-12-10 06:00:00 6.7 18 Nordeste 33 Norte 0 1006.8 0.7 71
2019-12-10 05:00:00 7.5 15 Norte 35 Norte 0 1006.7 1 67
2019-12-10 04:00:00 7.1 14 Norte 24 Norte 0 1006.3 0.2 70
2019-12-10 03:00:00 7.2 16 Nordeste 33 Nordeste 0 1006.1 0.2 73
2019-12-10 02:00:00 7.6 23 Nordeste -- -- -- 1005.7 -0.4 70
2019-12-10 01:00:00 7.2 22 Nordeste 33 Nordeste 0 1006.1 0.1 73
2019-12-10 00:00:00 7.5 25 Norte 35 Norte 0 1005.9 0 77
2019-12-09 23:00:00 6.7 22 Nordeste 28 Nordeste 0 1006.1 1.3 86
2019-12-09 22:00:00 6.1 4 Norte 13 Norte 0 1006 2 95
2019-12-09 21:00:00 7.3 10 Nordeste 17 Sudoeste 0 1005.9 2.2 92
2019-12-09 20:00:00 9.3 4 Oeste 17 Nordeste 0 1004.8 2.3 78
2019-12-09 19:00:00 10 3 Oeste 15 Norte 0 1004 1.8 86
2019-12-09 18:00:00 11 3 Norte 11 Noroeste 0 1003.7 1.5 86
2019-12-09 17:00:00 13.3 6 Este 13 Sudeste 0 1002.5 0.3 76
2019-12-09 16:00:00 15.4 10 Sudeste 15 Sudeste 0 1002.2 -0.7 69
2019-12-09 15:00:00 15.8 9 Sudeste 15 Sudeste 0 1002.2 -0.9 64
2019-12-09 14:00:00 15.4 7 Sur 13 Sur 0 1002.2 -2 67
2019-12-09 13:00:00 14.6 10 Sur 15 Sudoeste 0 1002.9 -0.2 72
2019-12-09 12:00:00 12.2 6 Noroeste 9 Noroeste 0 1003.1 -0.1 82
2019-12-09 11:00:00 9.6 4 Nordeste 11 Este 0 1004.2 0.5 87
2019-12-09 10:00:00 8.3 5 Sudeste 13 Oeste 0 1003.1 0 88
2019-12-09 09:00:00 8 7 Oeste 15 Noroeste 0 1003.2 0.1 87
2019-12-09 08:00:00 7 11 Noroeste 18 Norte 0 1003.7 0.9 91
2019-12-09 07:00:00 4.3 8 Norte 11 Norte 0 1003.1 0.1 100
2019-12-09 06:00:00 3.3 0 Calma 13 Nordeste 0 1003.1 -0.4 100
2019-12-09 05:00:00 5.6 5 Oeste 9 Oeste 0 1002.8 -0.5 100
2019-12-09 04:00:00 4.9 8 Sudoeste 9 Sudoeste 0 1003 -0.9 98
2019-12-09 03:00:00 6 5 Sudoeste 8 Sudoeste 0 1003.5 -0.6 98
2019-12-09 02:00:00 6.8 0 Calma -- -- -- 1003.3 -0.5 97
2019-12-09 01:00:00 7.5 8 Norte 18 Noroeste 0 1003.9 0.2 99
2019-12-09 00:00:00 7.4 0 Calma 9 Oeste 0 1004.1 0.2 99
2019-12-08 23:00:00 7.3 6 Oeste 11 Sur 0 1003.8 0.1 99
2019-12-08 22:00:00 6.8 4 Nordeste 8 Norte 0 1003.7 0.2 99
2019-12-08 21:00:00 6.7 0 Calma 8 Nordeste 0 1003.9 0.4 98
2019-12-08 20:00:00 7.7 4 Noroeste 13 Noroeste 0 1003.7 0.2 97
2019-12-08 19:00:00 8.8 7 Sudoeste 9 Sudoeste 0 1003.5 -0.1 95
2019-12-08 18:00:00 10.6 3 Noroeste 11 Sur 0 1003.5 -0.2 86
2019-12-08 17:00:00 14.3 0 Calma 8 Sur 0 1003.5 -0.5 70
2019-12-08 16:00:00 16.1 0 Calma 8 Sur 0 1003.6 -1.4 63
2019-12-08 15:00:00 16.1 4 Oeste 9 Sur 0 1003.7 -2.1 64
2019-12-08 14:00:00 15.3 7 Sur 11 Sur 0 1004 -2.5 70
2019-12-08 13:00:00 14.5 5 Sudeste 8 Sudeste 0 1005 -1.7 72
2019-12-08 12:00:00 11.3 5 Nordeste 9 Este 0 1005.8 -0.9 77
2019-12-08 11:00:00 9.9 4 Este 9 Sudeste 0 1006.5 0.2 86
2019-12-08 10:00:00 6.5 5 Sudoeste 8 Oeste 0 1006.7 0.8 96
2019-12-08 09:00:00 3.8 8 Nordeste 11 Norte 0 1006.7 0.9 100
2019-12-08 08:00:00 1.3 5 Norte 11 Nordeste 0 1006.3 0.2 100
2019-12-08 07:00:00 1.5 0 Calma 5 Sur 0 1005.9 -0.7 100
2019-12-08 06:00:00 1.6 6 Oeste 9 Oeste 0 1005.8 -0.9 100
2019-12-08 05:00:00 2.3 0 Calma -- -- 0 1006.1 -0.8 100
2019-12-08 04:00:00 2.7 0 Calma -- -- 0 1006.6 -0.8 99
2019-12-08 03:00:00 2.8 0 Calma 5 Norte 0 1006.7 -1 99
2019-12-08 02:00:00 3.3 3 Sudeste -- -- -- 1006.9 -0.5 98
2019-12-08 01:00:00 4.2 4 Noroeste 9 Oeste 0 1007.4 0 98
2019-12-08 00:00:00 5 2 Sudoeste 8 Nordeste 0 1007.7 0.3 97
2019-12-07 23:00:00 5.7 0 Calma 11 Noroeste 0 1007.4 0.4 92
2019-12-07 22:00:00 8 9 Noroeste 15 Norte 0 1007.4 1 93
2019-12-07 21:00:00 8.8 9 Norte 17 Norte 0 1007.4 1.6 90
2019-12-07 20:00:00 6.3 10 Nordeste 11 Norte 0 1007 1.5 95
2019-12-07 19:00:00 8.7 0 Calma 8 Sur 0 1006.4 1.1 85
2019-12-07 18:00:00 11.4 6 Sur 9 Sudoeste 0 1005.8 0.7 77
2019-12-07 17:00:00 13.2 9 Sur 18 Sur 0 1005.5 -0.1 68
2019-12-07 16:00:00 15.8 14 Sur 18 Sur 0 1005.3 -0.8 58
2019-12-07 15:00:00 16.7 12 Sur 17 Sur 0 1005.1 -1.8 58
2019-12-07 14:00:00 16.2 12 Sur 15 Sur 0 1005.6 -1.7 63
2019-12-07 13:00:00 15.4 6 Sur 11 Sudoeste 0 1006.1 -0.9 63
2019-12-07 12:00:00 12.5 5 Sudoeste 9 Sudoeste 0 1006.9 0.2 80
2019-12-07 11:00:00 9.1 6 Oeste 11 Sudoeste 0 1007.3 0.8 91
2019-12-07 10:00:00 7.2 5 Sudoeste 9 Este 0 1007 0.9 97
2019-12-07 09:00:00 4.2 0 Calma 8 Nordeste 0 1006.7 1 100
2019-12-07 08:00:00 2.1 5 Nordeste 8 Norte 0 1006.5 0.9 100
2019-12-07 07:00:00 2.4 0 Calma 9 Oeste 0 1006.1 0.1 100
2019-12-07 06:00:00 2.6 4 Oeste 8 Sudoeste 0 1005.7 -0.6 100
2019-12-07 05:00:00 2.8 4 Sur 5 Sur 0 1005.6 -0.7 100
2019-12-07 04:00:00 3.6 0 Calma 8 Sudoeste 0 1006 -0.4 100
2019-12-07 03:00:00 3.8 2 Sur 8 Nordeste 0 1006.3 -0.1 100
2019-12-07 02:00:00 4.2 0 Calma -- -- -- 1006.3 0.1 99
2019-12-07 01:00:00 4.1 4 Nordeste 8 Nordeste 0 1006.4 0.1 99
2019-12-07 00:00:00 4.5 0 Calma 5 Nordeste 0 1006.4 0 97
2019-12-06 23:00:00 5.3 0 Calma 4 Nordeste 0 1006.2 -0.3 97
2019-12-06 22:00:00 5.8 2 Oeste 13 Sudoeste 0 1006.3 0.1 96
2019-12-06 21:00:00 6.3 4 Nordeste 5 Nordeste 0 1006.4 0.5 94
2019-12-06 20:00:00 8.3 2 Oeste 9 Oeste 0 1006.5 0.9 85
2019-12-06 19:00:00 9.1 5 Sur 8 Sur 0 1006.2 0.6 81
2019-12-06 18:00:00 10.1 0 Calma 13 Sur 0 1005.9 0.4 78
2019-12-06 17:00:00 12.1 12 Sur 18 Sur 0 1005.6 -0.5 70
2019-12-06 16:00:00 15.2 16 Sur 21 Sur 0 1005.6 -1.1 60
2019-12-06 15:00:00 16.1 9 Sur 15 Sur 0 1005.5 -2.2 54
2019-12-06 14:00:00 16.2 8 Sur 13 Sur 0 1006.1 -2.3 56
2019-12-06 13:00:00 16 5 Sur 9 Sur 0 1006.7 -1.4 60
2019-12-06 12:00:00 14.8 5 Sur 9 Sur 0 1007.7 0.3 70
2019-12-06 11:00:00 12.1 3 Sur 5 Sur 0 1008.4 1.6 83
2019-12-06 10:00:00 11 0 Calma 5 Este 0 1008.1 1.6 87
2019-12-06 09:00:00 7.4 0 Calma 4 Sudoeste 0 1007.4 1 95
2019-12-06 08:00:00 8.1 0 Calma 8 Sudoeste 0 1006.8 0.4 92
2019-12-06 07:00:00 9.4 5 Norte 9 Norte 0 1006.5 -0.1 84
2019-12-06 06:00:00 10 6 Norte 11 Norte 0 1006.4 -0.4 82
2019-12-06 05:00:00 10.1 7 Norte 13 Norte 0 1006.4 -0.2 77
2019-12-06 04:00:00 9.7 6 Norte 9 Norte 0 1006.6 -0.1 84
2019-12-06 03:00:00 9.9 6 Noroeste 13 Noroeste 0 1006.8 -0.3 85
2019-12-06 02:00:00 10.1 5 Norte -- -- -- 1006.6 -0.3 84
2019-12-06 01:00:00 9.7 6 Norte 11 Norte 0 1006.7 0 90
2019-12-06 00:00:00 11 3 Norte 18 Norte 0 1007.1 0.3 79
2019-12-05 23:00:00 9.7 9 Norte 15 Nordeste 0 1006.9 0.1 91
2019-12-05 22:00:00 9.9 9 Norte 15 Noroeste 0 1006.7 0.4 89
2019-12-05 21:00:00 9.7 7 Norte 22 Norte 0 1006.8 1.2 86
2019-12-05 20:00:00 9.5 18 Norte 30 Nordeste 0 1006.8 1.6 84
2019-12-05 19:00:00 9.7 20 Nordeste 39 Nordeste 0 1006.3 1.5 86
2019-12-05 18:00:00 9.3 8 Norte 13 Norte 0.1 1005.6 1.3 95
2019-12-05 17:00:00 9.1 9 Norte 22 Norte 0.3 1005.2 1.4 93
2019-12-05 16:00:00 9 14 Nordeste 30 Nordeste 0.2 1004.8 1.3 93
2019-12-05 15:00:00 9.1 19 Nordeste 30 Nordeste 0.3 1004.3 0.5 90
2019-12-05 14:00:00 9.7 18 Nordeste 35 Norte 0 1003.8 0.3 85
2019-12-05 13:00:00 10 26 Norte 39 Nordeste 0 1003.5 1.3 84
2019-12-05 12:00:00 10 24 Norte 50 Norte 0.2 1003.8 2.4 88
2019-12-05 11:00:00 9.8 19 Nordeste 37 Nordeste 0 1003.5 2.5 92
2019-12-05 10:00:00 9.6 24 Norte 35 Norte 0.2 1002.2 1.8 93
2019-12-05 09:00:00 9.4 24 Norte 39 Norte 0.1 1001.4 1.6 96
2019-12-05 08:00:00 8.9 22 Nordeste 39 Nordeste 0.5 1001 1.5 100
2019-12-05 07:00:00 8.8 25 Norte 37 Nordeste 1.4 1000.4 1 100
2019-12-05 06:00:00 8.7 25 Nordeste 37 Nordeste 1.9 999.8 0.6 100
2019-12-05 05:00:00 8.7 25 Norte 35 Norte 1.8 999.5 0.8 100
2019-12-05 04:00:00 8.7 24 Nordeste 37 Nordeste 2.1 999.4 1.2 100
2019-12-05 03:00:00 8.7 25 Norte 35 Nordeste 2.7 999.2 0.8 100
2019-12-05 02:00:00 8.6 26 Nordeste -- -- -- 998.7 0.6 100
2019-12-05 01:00:00 8.8 27 Norte 45 Norte 4.4 998.2 0.8 100
2019-12-05 00:00:00 8.8 26 Norte 41 Nordeste 5.5 998.4 1.7 100
2019-12-04 23:00:00 8.9 30 Nordeste 46 Nordeste 8.1 998.1 1.8 100
2019-12-04 22:00:00 8.9 30 Nordeste 45 Norte 5.3 997.4 1.4 100
2019-12-04 21:00:00 8.8 28 Norte 45 Norte 3.9 996.7 1.4 100
2019-12-04 20:00:00 8.6 34 Norte 46 Norte 3 996.3 1 100
2019-12-04 19:00:00 8.4 30 Nordeste 48 Nordeste 2 996 1.1 100
2019-12-04 18:00:00 8.5 31 Nordeste 58 Nordeste 4.6 995.3 0.9 100
2019-12-04 17:00:00 8.8 36 Nordeste 54 Nordeste 1.4 995.3 0.4 100
2019-12-04 16:00:00 8.9 37 Nordeste 54 Norte 5 994.9 -0.3 100
2019-12-04 15:00:00 9.2 33 Nordeste 50 Nordeste 4.4 994.4 -1.7 100
2019-12-04 14:00:00 9.2 35 Norte 48 Norte 2.6 994.9 -1.7 100
2019-12-04 13:00:00 9.3 27 Norte 42 Nordeste 0.9 995.2 -1.4 100
2019-12-04 12:00:00 9.5 29 Nordeste 45 Nordeste 1.1 996.1 -0.6 99
2019-12-04 11:00:00 9.6 29 Nordeste 45 Norte 0.9 996.6 -0.1 99
2019-12-04 10:00:00 9.4 31 Nordeste 46 Nordeste 2.2 996.6 -0.8 100
2019-12-04 09:00:00 9.3 28 Nordeste 46 Nordeste 1.2 996.7 -0.9 100
2019-12-04 08:00:00 9.4 32 Nordeste 50 Nordeste 1.7 996.7 -1.6 100
2019-12-04 07:00:00 9.1 27 Norte 41 Nordeste 2.4 997.4 -1.8 100
2019-12-04 06:00:00 9.2 30 Norte 45 Norte 1 997.6 -2.1 98
2019-12-04 05:00:00 9.4 24 Nordeste 37 Nordeste 0.5 998.3 -2.1 97
2019-12-04 04:00:00 9.8 23 Nordeste 35 Nordeste 0.1 999.2 -1.7 95
2019-12-04 03:00:00 10.1 24 Norte 37 Nordeste 0 999.7 -2.1 90
2019-12-04 02:00:00 10.1 22 Norte 33 Nordeste 0 1000.4 -1.5 88
2019-12-04 01:00:00 10.2 24 Norte 37 Nordeste 0 1000.9 -1.2 87
2019-12-04 00:00:00 10.9 23 Nordeste 33 Nordeste 0 1001.8 -0.3 80
2019-12-03 23:00:00 11.1 20 Norte 32 Norte 0 1001.9 -0.1 76
2019-12-03 22:00:00 10.7 15 Norte 22 Norte 0 1002.1 0.3 75
2019-12-03 21:00:00 10 15 Nordeste 24 Nordeste 0 1002.1 0.4 75
2019-12-03 20:00:00 9.8 18 Norte 28 Nordeste 0 1002 0.5 71
2019-12-03 19:00:00 9.7 17 Norte 26 Norte 0 1001.8 0.3 69
2019-12-03 18:00:00 9.8 14 Nordeste 26 Norte 0 1001.7 0.2 71
2019-12-03 17:00:00 10.1 11 Nordeste 28 Nordeste 0 1001.5 -0.6 67
2019-12-03 16:00:00 10.6 19 Nordeste 28 Nordeste 0 1001.5 -1 60
2019-12-03 15:00:00 11.4 19 Norte 30 Norte 0 1001.5 -1.6 60
2019-12-03 14:00:00 10.4 18 Norte 32 Nordeste 0 1002.1 -1.5 62
2019-12-03 13:00:00 10.4 23 Nordeste 32 Nordeste 0 1002.5 -1 60
2019-12-03 12:00:00 9.6 17 Nordeste 26 Nordeste 0 1003.1 -0.2 65
2019-12-03 11:00:00 9 13 Nordeste 24 Norte 0 1003.6 0.7 73
2019-12-03 10:00:00 6.8 16 Norte 33 Norte 0 1003.5 0.9 78
2019-12-03 09:00:00 4.7 17 Norte 24 Norte 0 1003.3 1.1 87
2019-12-03 08:00:00 3.7 12 Norte 18 Norte 0 1002.9 0.9 95
2019-12-03 07:00:00 0.7 3 Noroeste 13 Norte 0 1002.6 0.5 99
2019-12-03 06:00:00 0.8 5 Norte 11 Este 0 1002.2 -0.2 98
2019-12-03 05:00:00 1.1 2 Sudoeste 15 Este 0 1002 -0.3 98
2019-12-03 04:00:00 1.3 3 Noroeste 9 Nordeste 0 1002.1 -0.3 98
2019-12-03 03:00:00 1.6 6 Sudoeste 9 Sudoeste 0 1002.4 0 95
2019-12-03 02:00:00 3 8 Noroeste 11 Oeste 0 1002.3 -0.2 96
2019-12-03 01:00:00 3.1 5 Norte 11 Norte 0 1002.4 0 96
2019-12-03 00:00:00 3.8 4 Nordeste 9 Noroeste 0 1002.4 0.2 87
2019-12-02 23:00:00 5.7 6 Noroeste 11 Noroeste 0 1002.5 0.7 84
2019-12-02 22:00:00 5.3 6 Noroeste 13 Norte 0 1002.4 1.4 86
2019-12-02 21:00:00 6 9 Norte 13 Nordeste 0 1002.2 1.4 82
2019-12-02 20:00:00 6.3 8 Nordeste 11 Nordeste 0 1001.8 1.7 81
2019-12-02 19:00:00 8.3 5 Norte 22 Nordeste 0 1001 1.2 74
2019-12-02 18:00:00 9.6 16 Nordeste 21 Nordeste 0 1000.8 1 71
2019-12-02 17:00:00 11.6 11 Nordeste 22 Nordeste 0 1000.1 0.1 63
2019-12-02 16:00:00 14.4 16 Nordeste 22 Nordeste 0 999.8 -0.6 53
2019-12-02 15:00:00 14 17 Nordeste 33 Nordeste 0 999.8 -1 56
2019-12-02 14:00:00 14.1 15 Nordeste 24 Nordeste 0 1000 -1.2 57
2019-12-02 13:00:00 13.1 10 Norte 24 Norte 0 1000.4 -0.3 62
2019-12-02 12:00:00 12 14 Norte 22 Norte 0 1000.8 0.6 64
2019-12-02 11:00:00 11.7 12 Nordeste 22 Nordeste 0 1001.2 1.5 63
2019-12-02 10:00:00 10 8 Norte 13 Nordeste 0 1000.7 1.6 70
2019-12-02 09:00:00 7.5 9 Noroeste 15 Norte 0 1000.2 1.5 78
2019-12-02 08:00:00 4.3 5 Norte 11 Norte 0 999.7 1.1 88
2019-12-02 07:00:00 6.3 8 Norte 15 Noroeste 0 999.1 0.8 84
2019-12-02 06:00:00 7 8 Norte 15 Nordeste 0 998.7 0.4 83
2019-12-02 05:00:00 7.3 9 Norte 18 Norte 0 998.6 0.4 80
2019-12-02 04:00:00 8 14 Norte 26 Norte 0 998.3 0.2 79
2019-12-02 03:00:00 8.2 10 Norte 21 Norte 0 998.3 0.1 81
2019-12-02 02:00:00 7.3 9 Norte 13 Norte 0 998.2 0.4 90
2019-12-02 01:00:00 5.3 2 Norte 8 Sudoeste 0 998.1 0.4 95
2019-12-02 00:00:00 6.1 0 Calma 8 Norte 0 998.2 0.7 93
2019-12-01 23:00:00 7.6 6 Norte 13 Norte 0 997.8 0.6 85
2019-12-01 22:00:00 9.1 6 Nordeste 11 Noroeste 0 997.7 1 85
2019-12-01 21:00:00 10.3 8 Norte 11 Norte 0 997.5 1.5 84
2019-12-01 20:00:00 10.7 7 Norte 11 Norte 0 997.2 1.7 88
2019-12-01 19:00:00 10.8 2 Sudoeste 15 Nordeste 0 996.7 1.4 89
2019-12-01 18:00:00 11.6 12 Nordeste 15 Nordeste 0 996 1.2 87
2019-12-01 17:00:00 13.2 10 Este 15 Este 0 995.5 0.5 79
2019-12-01 16:00:00 14.5 9 Norte 18 Norte 0 995.3 -0.2 71
2019-12-01 15:00:00 15.7 8 Nordeste 13 Nordeste 0 994.8 -1.4 67
2019-12-01 14:00:00 15.5 5 Nordeste 15 Nordeste 0 995 -1.7 67
2019-12-01 13:00:00 14.8 10 Este 17 Este 0 995.5 -0.8 69
2019-12-01 12:00:00 13.2 12 Nordeste 15 Nordeste 0 996.2 0.2 76
2019-12-01 11:00:00 12.4 11 Nordeste 17 Nordeste 0 996.7 0.9 80
2019-12-01 10:00:00 10.5 5 Norte 11 Norte 0 996.3 0.7 93
2019-12-01 09:00:00 10 8 Norte 13 Norte 0 996 0.4 91
2019-12-01 08:00:00 10 6 Norte 15 Norte 0.1 995.8 0.1 92
2019-12-01 07:00:00 10.2 12 Nordeste 21 Nordeste 0 995.6 -0.3 90
2019-12-01 06:00:00 10.6 17 Norte 24 Norte 0 995.6 -0.8 89
2019-12-01 05:00:00 11.1 16 Nordeste 24 Nordeste 0 995.7 -0.7 93
2019-12-01 04:00:00 11.2 10 Norte 13 Norte 0 995.9 -1.2 94
2019-12-01 03:00:00 11.2 3 Norte 13 Norte 0 996.4 -0.8 96
2019-12-01 02:00:00 9.6 2 Noroeste 11 Nordeste 0 996.4 -1 99
2019-12-01 01:00:00 9.6 9 Norte 15 Norte 0 997.1 -0.2 99
2019-12-01 00:00:00 10 4 Este 17 Sur 0 997.2 -0.1 97
2019-11-30 23:00:00 11 13 Sur 21 Sur 0 997.4 0.1 94
2019-11-30 22:00:00 11.8 8 Sudoeste 24 Sudoeste 0 997.3 -0.2 96
2019-11-30 21:00:00 12.5 15 Sudoeste 30 Sudoeste 0 997.3 -0.3 95
2019-11-30 20:00:00 12.6 22 Sudoeste 30 Sur 0 997.3 -0.5 95
2019-11-30 19:00:00 12.8 18 Sur 26 Sur 0 997.5 -0.7 89
2019-11-30 18:00:00 13.8 16 Sur 30 Sur 0 997.6 -0.8 85
2019-11-30 17:00:00 15.2 23 Sur 35 Sur 0 997.8 -1.3 80
2019-11-30 16:00:00 17 28 Sur 37 Sur 0 998.2 -2.1 74
2019-11-30 15:00:00 18.8 25 Sudoeste 33 Sudoeste 0 998.4 -3.3 61
2019-11-30 14:00:00 18.8 19 Sudoeste 28 Sur 0 999.1 -3.8 64
2019-11-30 13:00:00 17.7 17 Sudoeste 26 Sudoeste 0 1000.3 -2.6 65
2019-11-30 12:00:00 15.8 6 Sur 17 Sur 0 1001.7 -1.3 76
2019-11-30 11:00:00 13.2 5 Sudoeste 9 Sudoeste 0 1002.9 -0.5 83
2019-11-30 10:00:00 10.3 6 Este 9 Este 0 1002.9 -0.6 92
2019-11-30 09:00:00 7.3 5 Oeste 9 Oeste 0 1003 -1 99
2019-11-30 08:00:00 6.9 5 Oeste 9 Oeste 0 1003.4 -0.8 99
2019-11-30 07:00:00 6 4 Sudoeste 9 Oeste 0 1003.5 -0.8 99
2019-11-30 06:00:00 5.9 0 Calma 8 Sudoeste 0 1004 -0.8 99
2019-11-30 05:00:00 6.3 0 Calma 8 Oeste 0 1004.2 -0.8 98
2019-11-30 04:00:00 7.5 0 Calma 8 Norte 0 1004.3 -0.7 99
2019-11-30 03:00:00 7.7 0 Calma 8 Norte 0 1004.8 -0.3 98
2019-11-30 02:00:00 7.8 4 Noroeste 8 Oeste 0 1005 0 98
2019-11-30 01:00:00 8 0 Calma 5 Nordeste 0 1005 -0.1 96
2019-11-30 00:00:00 8.9 0 Calma 4 Sudoeste 0 1005.1 0.3 92
2019-11-29 23:00:00 10.8 0 Calma -- -- 0 1005 0.6 93
2019-11-29 22:00:00 11.6 0 Calma -- -- 0 1005.1 0.9 93
2019-11-29 21:00:00 11.1 0 Calma 9 Norte 0 1004.8 1.1 94
2019-11-29 20:00:00 11.7 -- -- -- -- 0 1004.4 1.4 88
2019-11-29 19:00:00 12.5 0 Calma 9 Sudoeste 0 1004.2 1.9 85
2019-11-29 18:00:00 13.4 7 Sudoeste 11 Sudoeste 0 1003.7 1.9 80
2019-11-29 17:00:00 13.9 11 Sur 21 Sur 0 1003 1.3 77
2019-11-29 16:00:00 15.3 15 Sur 21 Sur 0 1002.3 0.4 73
2019-11-29 15:00:00 16.2 6 Sudeste 11 Sudeste 0 1001.8 -0.5 72
2019-11-29 14:00:00 16.9 5 Sur 11 Sudeste 0 1001.7 -0.1 66
2019-11-29 13:00:00 16.2 5 Sur 9 Sudoeste 0 1001.9 0.9 67
2019-11-29 12:00:00 16.4 4 Sur 9 Nordeste 0 1002.3 1.9 65
2019-11-29 11:00:00 14.9 8 Norte 15 Nordeste 0 1001.8 2.5 70
2019-11-29 10:00:00 13.2 9 Nordeste 13 Nordeste 0 1001 2.5 78
2019-11-29 09:00:00 10.1 5 Norte 11 Nordeste 0 1000.4 2.4 91
2019-11-29 08:00:00 9.2 4 Noroeste 9 Norte 0 999.3 2 90
2019-11-29 07:00:00 9.3 5 Nordeste 13 Oeste 0 998.5 1.7 89
2019-11-29 06:00:00 9.6 6 Sudoeste 15 Norte 0 998 1.1 88
2019-11-29 05:00:00 10.6 7 Norte 17 Norte 0 997.3 1.1 82
2019-11-29 04:00:00 11 10 Norte 18 Norte 0 996.8 0.4 81
2019-11-29 03:00:00 9.9 11 Nordeste 15 Norte 0 996.9 0.3 88
2019-11-29 02:00:00 11 12 Nordeste 17 Nordeste 0 996.2 -0.2 86
2019-11-29 01:00:00 12.1 13 Nordeste 24 Nordeste 0 996.4 -0.2 83
2019-11-29 00:00:00 12.1 12 Nordeste 21 Sudoeste 0 996.6 0.3 81
2019-11-28 23:00:00 12.8 13 Oeste 21 Sur 0 996.4 0.2 77
2019-11-28 22:00:00 12.1 3 Noroeste 11 Sudoeste 0 996.6 0.5 80
2019-11-28 21:00:00 11.6 2 Sudoeste 11 Oeste 0 996.3 0.6 85
2019-11-28 20:00:00 11.7 2 Sur 11 Sur 0 996.2 0.5 85
2019-11-28 19:00:00 12.2 2 Norte 13 Sur 0 996.1 0.4 81
2019-11-28 18:00:00 13.9 10 Norte 13 Norte 0 995.7 0.4 74
2019-11-28 17:00:00 14.6 0 Calma 9 Sur 0 995.7 0.2 68
2019-11-28 16:00:00 18.4 0 Calma 17 Sudeste 0 995.7 -0.1 52
2019-11-28 15:00:00 18.8 4 Sudeste 11 Sudeste 0 995.3 -0.9 50
2019-11-28 14:00:00 18.2 5 Sur 15 Sur 0 995.5 -1.2 52
2019-11-28 13:00:00 17.8 12 Sur 21 Sur 0 995.8 0.1 53
2019-11-28 12:00:00 17.4 5 Sur 11 Sur 0 996.2 1.1 54
2019-11-28 11:00:00 15.6 3 Sudoeste 11 Sur 0 996.7 2.4 60
2019-11-28 10:00:00 11.6 9 Sur 11 Sudoeste 0 995.7 2.1 78
2019-11-28 09:00:00 9.1 3 Sur 8 Sudoeste 0 995.1 2.5 86
2019-11-28 08:00:00 6.5 3 Nordeste 13 Sudoeste 0 994.3 2 90
2019-11-28 07:00:00 8.1 4 Oeste 11 Sudeste 0 993.6 1.5 85
2019-11-28 06:00:00 11.3 6 Sudoeste 26 Oeste 0 992.6 0.3 71
2019-11-28 05:00:00 12.5 14 Noroeste 26 Norte 0 992.3 -0.1 66
2019-11-28 04:00:00 9.9 13 Oeste 21 Oeste 0 992.1 -0.4 82
2019-11-28 03:00:00 8.7 6 Oeste 13 Oeste 0 992.3 -0.5 98
2019-11-28 02:00:00 8.3 4 Nordeste 11 Este 0 992.4 -0.5 98
2019-11-28 01:00:00 8.3 3 Oeste 13 Nordeste 0 992.5 -0.8 98
2019-11-28 00:00:00 8.9 4 Nordeste 9 Nordeste 0 992.8 -0.6 95
2019-11-27 23:00:00 11 8 Norte 13 Norte 0 992.9 0 92
2019-11-27 22:00:00 10.6 3 Sudoeste 13 Sur 0 993.3 0.9 92
2019-11-27 21:00:00 11.6 9 Norte 13 Norte 0 993.4 1 88
2019-11-27 20:00:00 11.5 7 Este 15 Norte 0 992.9 0.8 88
2019-11-27 19:00:00 11.8 3 Norte 9 Noroeste 0 992.4 0.7 87
2019-11-27 18:00:00 12.6 6 Norte 13 Sudeste 0 992.4 0.7 84
2019-11-27 17:00:00 14.2 7 Sudeste 17 Sur 0 992.1 0.6 76
2019-11-27 16:00:00 14.9 12 Sudeste 17 Sudeste 0 991.7 0.3 74
2019-11-27 15:00:00 15.3 12 Sudeste 22 Sudeste 0 991.7 0.6 73
2019-11-27 14:00:00 16.1 17 Sudeste 26 Sur 0 991.5 -0.2 69
2019-11-27 06:00:00 12.1 7 Noroeste 15 Noroeste 0 987.1 0.5 81
2019-11-27 05:00:00 11.4 7 Este 11 Nordeste 0 987.1 0.4 83
2019-11-27 04:00:00 12.5 13 Sur 24 Sur 0 986.6 -1.3 77
2019-11-27 03:00:00 12.5 14 Sur 24 Sur 0 986.6 -1.7 78
2019-11-27 02:00:00 13.2 15 Sur 26 Sur 0 986.7 -1.7 74
2019-11-27 01:00:00 15 12 Sudoeste 30 Sur 0 987.9 -1.1 68
2019-11-27 00:00:00 14.5 18 Sudoeste 42 Sudoeste 0 988.3 -1.4 69
2019-11-26 23:00:00 13.2 22 Sudoeste 33 Sudoeste 0 988.4 -1.2 72
2019-11-26 22:00:00 12.1 0 Calma 15 Oeste 0 989 -0.9 74
2019-11-26 21:00:00 12.3 11 Oeste 21 Sudoeste 0 989.7 -0.7 74
2019-11-26 20:00:00 11.9 3 Sudoeste 15 Sudoeste 0 989.6 -1 80
2019-11-26 19:00:00 12.8 9 Sudoeste 13 Sur 0 989.9 -1 75
2019-11-26 18:00:00 14 9 Sudoeste 15 Sudoeste 0 990.4 -0.9 71
2019-11-26 17:00:00 16.2 0 Calma 13 Sudoeste 0 990.6 -1.5 61
2019-11-26 16:00:00 17.8 10 Sudoeste 17 Sudoeste 0 990.9 -1.9 64
2019-11-26 15:00:00 19.5 5 Sur 11 Sudoeste 0 991.3 -3.2 54
2019-11-26 14:00:00 18.4 5 Sudoeste 11 Sudoeste 0 992.1 -3 59
2019-11-26 13:00:00 16.4 9 Sur 11 Sur 0 992.8 -2.5 66
2019-11-26 12:00:00 13.5 4 Sudoeste 9 Sur 0 994.5 -1 74
2019-11-26 11:00:00 11.5 8 Sudoeste 11 Sudoeste 0 995.1 -0.4 79
2019-11-26 10:00:00 8.1 3 Sudoeste 11 Sudoeste 0 995.3 -0.1 92
2019-11-26 09:00:00 3.7 8 Sur 11 Sur 0 995.5 -0.4 97
2019-11-26 08:00:00 2.8 3 Sur 11 Noroeste 0 995.5 -0.6 97
2019-11-26 07:00:00 2.8 8 Oeste 11 Noroeste 0 995.4 -0.9 99
2019-11-26 06:00:00 2.4 3 Sur 8 Oeste 0 995.9 -0.8 98
2019-11-26 05:00:00 3.1 3 Norte 8 Oeste 0 996.1 -0.8 98
2019-11-26 04:00:00 2.9 3 Este 5 Este 0 996.3 -1.2 97
2019-11-26 03:00:00 4.2 5 Oeste 8 Oeste 0 996.7 -1 96
2019-11-26 02:00:00 5.1 4 Oeste 11 Oeste 0 996.9 -0.9 96
2019-11-26 01:00:00 5.2 2 Sudoeste 8 Oeste 0 997.5 -0.3 97
2019-11-26 00:00:00 5.6 5 Nordeste 8 Nordeste 0 997.7 0.2 98
2019-11-25 23:00:00 5.8 0 Calma 8 Noroeste 0 997.8 0.6 94
2019-11-25 22:00:00 6.8 0 Calma 5 Sudoeste 0 997.8 1 90
2019-11-25 21:00:00 7.9 0 Calma 5 Sudoeste 0 997.5 0.9 87
2019-11-25 20:00:00 8.8 4 Norte 13 Norte 0 997.2 1.3 83
2019-11-25 19:00:00 9.3 0 Calma 9 Noroeste 0 996.8 1.5 82
2019-11-25 18:00:00 12.7 8 Oeste 9 Oeste 0 996.6 2.1 70
2019-11-25 17:00:00 16.2 0 Calma 5 Oeste 0 995.9 1.7 58
2019-11-25 16:00:00 18.8 3 Sudoeste 8 Sudoeste 0 995.3 1.2 49
2019-11-25 15:00:00 18.2 0 Calma 9 Sudoeste 0 994.5 -0.1 43
2019-11-25 14:00:00 17.9 4 Sudoeste 9 Sudoeste 0 994.2 -1 50
2019-11-25 13:00:00 16.8 0 Calma 8 Sur 0 994.1 -0.6 55
2019-11-25 12:00:00 14.1 4 Sudoeste 11 Sur 0 994.6 0.1 67
2019-11-25 11:00:00 11.1 5 Sur 9 Sudoeste 0 995.2 1.1 77
2019-11-25 10:00:00 8.2 4 Sudeste 8 Sudeste 0 994.7 1.3 89
2019-11-25 09:00:00 5.9 2 Sur 8 Oeste 0 994.5 1.3 97
2019-11-25 08:00:00 3.1 5 Oeste 8 Oeste 0 994.1 0.6 99
2019-11-25 07:00:00 3.5 0 Calma 5 Sudeste 0 993.4 0.3 98
2019-11-25 06:00:00 4.1 0 Calma 8 Noroeste 0 993.2 -0.3 98
2019-11-25 05:00:00 3.8 4 Oeste 11 Oeste 0 993.5 -0.2 99
2019-11-25 04:00:00 3.7 5 Norte 9 Noroeste 0 993.1 -0.9 98
2019-11-25 03:00:00 4.6 4 Nordeste 13 Sur 0 993.5 -0.6 98
2019-11-25 02:00:00 4.3 2 Oeste 8 Oeste 0 993.7 -0.2 98
2019-11-25 01:00:00 4.3 4 Oeste 9 Oeste 0 994 -0.2 96
2019-11-25 00:00:00 4.6 4 Sudoeste 15 Sudoeste 0 994.1 -0.1 96
2019-11-24 23:00:00 5.2 5 Sudoeste 9 Sur 0 993.9 -0.6 95
2019-11-24 22:00:00 6.2 4 Oeste 5 Oeste 0 994.2 0.2 96
2019-11-24 21:00:00 7.4 4 Sudoeste -- -- 0 994.2 0.6 95
2019-11-24 20:00:00 9.3 4 Sudoeste 11 Sudoeste 0 994.5 1.5 88
2019-11-24 19:00:00 10.8 9 Sudoeste 13 Sudoeste 0 994 1.6 85
2019-11-24 18:00:00 12 5 Sudoeste 17 Sur 0 993.6 1.8 79
2019-11-24 17:00:00 13.5 14 Sur 18 Sur 0 993 1.3 74
2019-11-24 16:00:00 15.5 10 Sur 17 Sur 0 992.4 0.8 64
2019-11-24 15:00:00 16.7 5 Sudeste 15 Sur 0 991.8 0.2 57
2019-11-24 14:00:00 16.4 9 Sur 18 Sudoeste 0 991.7 0 60
2019-11-24 13:00:00 16 5 Sur 11 Sudeste 0 991.6 0.4 59
2019-11-24 12:00:00 14.9 7 Nordeste 13 Nordeste 0 991.6 0.9 58
2019-11-24 11:00:00 13.8 5 Norte 13 Norte 0 991.7 1.9 57
2019-11-24 10:00:00 10.5 6 Nordeste 9 Nordeste 0 991.2 2.6 78
2019-11-24 09:00:00 7.9 4 Norte 15 Norte 0 990.7 3 83
2019-11-24 08:00:00 5.5 6 Nordeste 9 Nordeste 0 989.8 2.6 95
2019-11-24 07:00:00 6.3 6 Oeste 11 Oeste 0 988.6 2.1 93
2019-11-24 06:00:00 7.6 5 Oeste 8 Oeste 0 987.7 2 87
2019-11-24 05:00:00 8 5 Oeste 13 Sudoeste 0 987.2 2.1 89
2019-11-24 04:00:00 9.9 0 Calma 17 Norte 0 986.5 1.5 70
2019-11-24 03:00:00 9.8 11 Norte 18 Norte 0 985.7 1.1 71
2019-11-24 02:00:00 9.6 8 Noroeste 11 Noroeste 0 985.1 1.6 75
2019-11-24 01:00:00 9.4 6 Oeste 13 Oeste 0 985 2.3 81
2019-11-24 00:00:00 10.3 2 Oeste 15 Nordeste 0 984.6 2.7 74
2019-11-23 23:00:00 11.3 11 Norte 30 Noroeste 0 983.5 2.6 67
2019-11-23 22:00:00 9.9 6 Noroeste 15 Noroeste 0 982.7 2.8 82
2019-11-23 21:00:00 9.9 5 Nordeste 11 Este 0 981.9 3 88
2019-11-23 20:00:00 10.5 3 Sur 15 Sur 0 980.9 3.1 85
2019-11-23 19:00:00 10.5 4 Sudeste 13 Oeste 0 979.9 3.1 86
2019-11-23 18:00:00 11.3 4 Sudoeste 9 Sudoeste 0 978.9 3 78
2019-11-23 17:00:00 12.7 6 Noroeste 22 Nordeste 0 977.8 2.3 73
2019-11-23 16:00:00 14.6 15 Nordeste 26 Nordeste 0 976.8 1.3 70
2019-11-23 15:00:00 15.6 11 Noroeste 22 Noroeste 0 975.9 0.6 60
2019-11-23 14:00:00 16.4 14 Oeste 26 Oeste 0 975.5 0.2 58
2019-11-23 13:00:00 14.4 8 Noroeste 18 Noroeste 0 975.5 1.1 65
2019-11-23 12:00:00 14.9 6 Sudoeste 11 Sur 0 975.3 1.5 72
2019-11-23 11:00:00 13.6 6 Sudeste 13 Sudeste 0 975.3 2.2 79
2019-11-23 10:00:00 13.6 3 Sudoeste 17 Sudoeste 0 974.4 1.6 77
2019-11-23 09:00:00 10.8 10 Oeste 18 Sudoeste 0 973.8 1.6 87
2019-11-23 08:00:00 9.1 17 Sudoeste 28 Sur 0 973.1 1.4 94
2019-11-23 07:00:00 9.7 23 Sudoeste 32 Sudoeste 0 972.8 0.2 93
2019-11-23 06:00:00 10.5 17 Sudoeste 26 Sur 0 972.2 -0.9 93
2019-11-23 05:00:00 11.7 8 Sur 26 Sudoeste 0 971.7 -2.1 89
2019-11-23 04:00:00 13.2 19 Sur 33 Sur 0.6 972.6 -2.4 98
2019-11-23 03:00:00 13.6 27 Sur 41 Sudoeste 5.1 973.1 -3.5 98
2019-11-23 02:00:00 14.1 23 Sur 58 Sur 0.4 973.8 -3.7 98
2019-11-23 01:00:00 14 34 Sur 52 Sur 1.3 975 -3.8 98
2019-11-23 00:00:00 13.9 33 Sur 52 Sur 0.1 976.6 -3.1 96
2019-11-22 23:00:00 13.7 28 Sur 45 Sur 1.9 977.5 -3 98
2019-11-22 22:00:00 13.6 21 Sudoeste 39 Sudoeste 7.9 978.8 -2.9 99
2019-11-22 21:00:00 12.7 18 Sudoeste 24 Sudoeste 2.6 979.7 -2.6 99
2019-11-22 20:00:00 12.2 6 Sudoeste 21 Sur 0.5 980.5 -2.5 97
2019-11-22 19:00:00 13 14 Sur 28 Sur 0 981.7 -1.6 93
2019-11-22 18:00:00 13 23 Sur 32 Sur 0 982.3 -1.6 90
2019-11-22 17:00:00 13.2 18 Sur 33 Sur 0 983 -2 84
2019-11-22 16:00:00 14.5 22 Sur 35 Sur 0 983.3 -3.2 79
2019-11-22 15:00:00 14.5 18 Sur 28 Sudoeste 0 983.9 -4.1 88
2019-11-22 14:00:00 12.7 16 Sur 28 Sur 0 985 -4 95
2019-11-22 13:00:00 12.3 12 Sur 17 Sur 0 986.5 -2.9 93
2019-11-22 12:00:00 10 5 Sur 8 Sur 0 988 -1.9 94
2019-11-22 11:00:00 8.5 2 Oeste 26 Sur 3.8 989 -0.9 95
2019-11-22 10:00:00 7.7 3 Norte 9 Noroeste 0 989.4 -0.7 89
2019-11-22 09:00:00 6 0 Calma 5 Nordeste 0 989.9 -0.2 93
2019-11-22 08:00:00 4.5 0 Calma 9 Oeste 0 989.9 -0.5 94
2019-11-22 07:00:00 4 8 Oeste 9 Oeste 0 990.1 -0.6 93
2019-11-22 06:00:00 3.6 5 Sudoeste 8 Sudoeste 0 990.1 -0.9 91
2019-11-22 05:00:00 4.1 0 Calma 13 Oeste 0 990.4 -0.9 89
2019-11-22 04:00:00 4 9 Oeste 15 Oeste 0 990.7 -1 89
2019-11-22 03:00:00 6.6 0 Calma 8 Noroeste 0 991 -0.7 78
2019-11-22 02:00:00 6.3 0 Calma 8 Sur 0 991.3 -0.2 77
2019-11-22 01:00:00 6.6 4 Oeste 15 Nordeste 0 991.7 0.2 78
2019-11-22 00:00:00 6.9 5 Sudoeste 11 Oeste 0 991.7 0.5 76
2019-11-21 23:00:00 7.2 8 Oeste 15 Sudoeste 0 991.5 0.6 75
2019-11-21 22:00:00 6.4 4 Sur 13 Sudoeste 0 991.5 1 79
2019-11-21 21:00:00 7.5 3 Oeste 15 Sudoeste 0 991.2 1.3 75
2019-11-21 20:00:00 8.7 12 Oeste 15 Sudoeste 0 990.9 1.3 69
2019-11-21 19:00:00 9.9 13 Sudoeste 21 Sudoeste 0 990.5 1.2 65
2019-11-21 18:00:00 10.5 5 Sudoeste 26 Sudoeste 0 989.9 1.1 66
2019-11-21 17:00:00 12 13 Sudoeste 24 Sur 0 989.6 0.5 60
2019-11-21 16:00:00 12.8 19 Sudoeste 30 Sur 0 989.3 -0.5 62
2019-11-21 15:00:00 15.4 20 Sur 32 Sur 0 988.8 -1.9 53
2019-11-21 14:00:00 15.5 23 Sur 35 Sudoeste 0 989.1 -2.1 52
2019-11-21 13:00:00 15.4 23 Sur 37 Sudoeste 0 989.8 -1.4 55
2019-11-21 12:00:00 13.9 16 Sur 24 Sur 0 990.7 -0.6 61
2019-11-21 11:00:00 11.1 9 Sur 11 Sur 0 991.2 0.4 72
2019-11-21 10:00:00 7.1 0 Calma 9 Oeste 0 991.2 0.4 86
2019-11-21 09:00:00 3.2 7 Oeste 9 Oeste 0 991.3 0.8 95
2019-11-21 08:00:00 -- -- -- -- -- -- -- -- --
2019-11-21 07:00:00 -- -- -- -- -- -- -- -- --
2019-11-21 06:00:00 -- -- -- -- -- -- -- -- --
2019-11-21 05:00:00 -- -- -- -- -- -- -- -- --
2019-11-21 04:00:00 -- -- -- -- -- -- -- -- --
2019-11-21 03:00:00 -- -- -- -- -- -- -- -- --
2019-11-21 02:00:00 -- -- -- -- -- -- -- -- --
2019-11-21 01:00:00 -- -- -- -- -- -- -- -- --
2019-11-21 00:00:00 -- -- -- -- -- -- -- -- --
2019-11-20 23:00:00 -- -- -- -- -- -- -- -- --
2019-11-20 22:00:00 7 10 Oeste 15 Sudoeste 0 993.3 0.3 87
2019-11-20 21:00:00 6.9 11 Sudoeste 17 Sur 0 993.3 0.5 87
2019-11-20 20:00:00 8.1 14 Sur 24 Sudoeste 0 993.3 0.2 83
2019-11-20 19:00:00 8.9 18 Sudoeste 28 Sudoeste 0 993 -0.3 82
2019-11-20 18:00:00 9.4 21 Sudoeste 30 Sur 0 992.8 -0.5 81
2019-11-20 17:00:00 10.4 21 Sur 37 Sur 0 993.1 -0.8 76
2019-11-20 16:00:00 10.8 26 Sudoeste 37 Sudoeste 0 993.3 -1.3 69
2019-11-20 15:00:00 11.9 26 Sudoeste 45 Sur 0 993.3 -2.5 68
2019-11-20 14:00:00 13.7 29 Sudoeste 42 Sudoeste 0 993.9 -2.8 58
2019-11-20 13:00:00 13.2 24 Sudoeste 33 Sur 0 994.6 -2.2 60
2019-11-20 12:00:00 10.2 6 Sudoeste 9 Sudoeste 0 995.8 -1.3 66
2019-11-20 11:00:00 5.8 5 Sudoeste 9 Sudoeste 0 996.7 -0.5 81
2019-11-20 10:00:00 3.1 2 Sur 11 Oeste 0 996.8 -0.3 94
2019-11-20 09:00:00 -0.1 6 Sudoeste 9 Oeste 0 997.1 -0.2 96
2019-11-20 08:00:00 -2.2 0 Calma 11 Oeste 0 997.2 -0.3 98
2019-11-20 07:00:00 -2.4 0 Calma 5 Sur 0 997.1 -0.8 98
2019-11-20 06:00:00 -1.6 0 Calma 5 Oeste 0 997.3 -1 98
2019-11-20 05:00:00 -1.5 0 Calma 8 Oeste 0 997.5 -0.9 97
2019-11-20 04:00:00 -0.6 8 Oeste 9 Oeste 0 997.9 -1 98
2019-11-20 03:00:00 -0.4 2 Nordeste 8 Oeste 0 998.3 -1.1 97
2019-11-20 02:00:00 0.7 6 Oeste 8 Oeste 0 998.4 -1.1 97
2019-11-20 01:00:00 1.4 0 Calma 9 Oeste 0 998.9 -0.8 95
2019-11-20 00:00:00 2.3 2 Oeste 5 Oeste 0 999.4 -0.3 95
2019-11-19 23:00:00 3 0 Calma 4 Norte 0 999.5 -0.1 91
2019-11-19 22:00:00 3.9 0 Calma 4 Oeste 0 999.7 0.4 89
2019-11-19 21:00:00 4.3 5 Nordeste 8 Este 0 999.7 0.8 92
2019-11-19 20:00:00 4 0 Calma 5 Sudoeste 0 999.6 1 85
2019-11-19 19:00:00 6.8 4 Sudoeste 8 Sur 0 999.3 0.8 76
2019-11-19 18:00:00 8.3 5 Sur 21 Sur 0 998.9 0.6 71
2019-11-19 17:00:00 10.2 10 Sur 24 Sur 0 998.6 0.3 69
2019-11-19 16:00:00 11.3 17 Sur 24 Sur 0 998.5 -0.3 64
2019-11-19 15:00:00 13 9 Sur 24 Sur 0 998.3 -1.2 56
2019-11-19 14:00:00 13.1 15 Sudoeste 22 Sur 0 998.3 -1.5 54
2019-11-19 13:00:00 12.5 12 Sur 21 Sur 0 998.8 -1.2 57
2019-11-19 12:00:00 11.2 4 Sudeste 9 Sudeste 0 999.5 -0.3 57
2019-11-19 11:00:00 8.9 4 Nordeste 9 Nordeste 0 999.8 0.4 65
2019-11-19 10:00:00 4.7 5 Sudoeste 8 Sudoeste 0 1000 1.2 85
2019-11-19 09:00:00 0.9 5 Oeste 13 Norte 0 999.8 1.7 93
2019-11-19 08:00:00 -0.8 10 Norte 15 Norte 0 999.4 1.3 96
2019-11-19 07:00:00 -2.1 9 Norte 13 Nordeste 0 998.8 0.8 98
2019-11-19 06:00:00 -1.7 0 Calma 13 Norte 0 998.1 0.2 96
2019-11-19 05:00:00 -1.3 6 Norte 11 Norte 0 998.1 0.5 98
2019-11-19 04:00:00 -1.2 8 Nordeste 13 Nordeste 0 998 0.2 97
2019-11-19 03:00:00 -1.5 8 Nordeste 11 Nordeste 0 997.9 -0.2 96
2019-11-19 02:00:00 0 4 Oeste 9 Nordeste 0 997.6 -0.4 96
2019-11-19 01:00:00 0.8 4 Nordeste 11 Noroeste 0 997.8 0 94
2019-11-19 00:00:00 1.3 8 Noroeste 9 Oeste 0 998.1 0.8 91
2019-11-18 23:00:00 2.8 6 Oeste 13 Nordeste 0 998 1 80
2019-11-18 22:00:00 4.8 11 Norte 18 Norte 0 997.8 1.5 70
2019-11-18 21:00:00 3.1 7 Norte 13 Nordeste 0 997.3 1.5 81
2019-11-18 20:00:00 5.4 11 Nordeste 15 Nordeste 0 997 2.1 75
2019-11-18 19:00:00 6.1 5 Norte 13 Nordeste 0 996.3 2.1 72
2019-11-18 18:00:00 7.9 4 Norte 28 Nordeste 0 995.8 1.8 63
2019-11-18 17:00:00 8.6 14 Nordeste 28 Nordeste 0 994.9 1 63
2019-11-18 16:00:00 10.2 19 Nordeste 35 Nordeste 0 994.2 -0.3 58
2019-11-18 15:00:00 11 28 Nordeste 45 Nordeste 0 994 -1.4 56
2019-11-18 14:00:00 11.6 32 Nordeste 46 Nordeste 0 993.9 -0.9 57
2019-11-18 13:00:00 10.9 31 Norte 55 Nordeste 0 994.5 0.6 61
2019-11-18 12:00:00 9.9 28 Norte 48 Nordeste 0 995.4 1.7 73
2019-11-18 11:00:00 9.7 29 Nordeste 46 Nordeste 0 994.8 1.7 76
2019-11-18 10:00:00 9.2 21 Nordeste 32 Nordeste 0 993.9 1.5 77
2019-11-18 09:00:00 6.7 14 Nordeste 18 Norte 0 993.7 1.5 87
2019-11-18 08:00:00 5.7 14 Nordeste 24 Norte 0 993.1 1.2 89
2019-11-18 07:00:00 6.5 14 Norte 24 Norte 0 992.4 0.8 85
2019-11-18 06:00:00 6.6 15 Norte 21 Norte 0 992.2 0.2 84
2019-11-18 05:00:00 6.9 10 Norte 18 Norte 0 991.9 0.1 87
2019-11-18 04:00:00 3.1 6 Nordeste 9 Nordeste 0 991.6 -0.5 95
2019-11-18 03:00:00 3.2 6 Nordeste 11 Noroeste 0 992 -0.2 89
2019-11-18 02:00:00 3 7 Norte 13 Norte 0 991.8 -0.5 94
2019-11-18 01:00:00 4.1 4 Norte 11 Noroeste 0 992.1 -0.5 91
2019-11-18 00:00:00 2.8 3 Sudeste -- -- -- 992.2 -0.2 95
2019-11-17 23:00:00 4 6 Noroeste 8 Oeste 0 992.3 -0.2 91
2019-11-17 22:00:00 3.6 8 Sur 13 Sur 0 992.6 0.2 89
2019-11-17 21:00:00 5 8 Noroeste 11 Norte 0 992.4 0.2 84
2019-11-17 20:00:00 4.9 5 Nordeste 11 Norte 0 992.5 0.6 83
2019-11-17 19:00:00 7.6 8 Noroeste 13 Noroeste 0 992.4 0.7 71
2019-11-17 18:00:00 8.7 -- -- -- -- 0 992.2 0.6 67
2019-11-17 17:00:00 10.7 6 Sudoeste 11 Sur 0 991.9 0.3 64
2019-11-17 16:00:00 11.7 10 Sur 18 Sur 0 991.7 -0.3 58
2019-11-17 15:00:00 11.7 9 Sudoeste 18 Sudoeste 0 991.6 -0.6 54
2019-11-17 14:00:00 12.6 6 Sudoeste 11 Sudoeste 0 991.6 -1 49
2019-11-17 13:00:00 12.2 3 Nordeste 18 Norte 0 992 -1 49
2019-11-17 12:00:00 11 10 Nordeste 17 Norte 0 992.2 -0.4 57
2019-11-17 11:00:00 7.6 4 Nordeste 18 Noroeste 0 992.6 0.2 70
2019-11-17 10:00:00 5.1 3 Oeste 11 Oeste 0 993 0.9 83
2019-11-17 09:00:00 3.9 6 Norte 11 Norte 0 992.6 0.3 88
2019-11-17 08:00:00 1.6 4 Norte 13 Noroeste 0 992.4 0.1 94
2019-11-17 07:00:00 -0.1 8 Nordeste 13 Este 0 992.1 -0.5 93
2019-11-17 06:00:00 0 4 Norte 11 Sudeste 0 992.3 -0.4 98
2019-11-17 05:00:00 0.7 8 Oeste 11 Oeste 0 992.3 -0.8 98
2019-11-17 04:00:00 -0.2 6 Sudoeste 11 Oeste 0 992.6 -1.1 97
2019-11-17 03:00:00 0.7 0 Calma 9 Nordeste 0 992.7 -1.2 96
2019-11-17 02:00:00 1.7 2 Sur 11 Sur 0 993.1 -1 92
2019-11-17 01:00:00 3.6 5 Sur 17 Noroeste 0 993.7 -0.6 83
2019-11-17 00:00:00 5.6 12 Noroeste 21 Noroeste 0 993.9 -0.4 77
2019-11-16 23:00:00 5.9 13 Noroeste 26 Noroeste 0 994.1 0 77
2019-11-16 22:00:00 6 11 Noroeste 22 Noroeste 0 994.3 0.6 79
2019-11-16 21:00:00 6.1 7 Noroeste 15 Noroeste 0 994.3 1 80
2019-11-16 20:00:00 6.4 6 Norte 15 Norte 0 994.1 0.7 87
2019-11-16 19:00:00 5.7 9 Nordeste 15 Norte 0 993.7 0.5 88
2019-11-16 18:00:00 7.8 0 Calma 24 Sur 0 993.3 0.1 83
2019-11-16 17:00:00 10.4 14 Sur 28 Sur 0 993.4 -0.3 73
2019-11-16 16:00:00 12.3 17 Sur 28 Sur 0 993.2 -0.9 65
2019-11-16 15:00:00 13.5 21 Sur 28 Sur 0 993.2 -1.6 57
2019-11-16 14:00:00 13.5 9 Sudeste 15 Sudeste 0 993.7 -1.6 50
2019-11-16 13:00:00 13 4 Sudoeste 15 Sudeste 0 994.1 -1.1 59
2019-11-16 12:00:00 10.8 8 Sur 13 Sudeste 0 994.8 -0.2 68
2019-11-16 11:00:00 8.9 6 Nordeste 9 Este 0 995.3 1.1 76
2019-11-16 10:00:00 6.1 3 Sur 8 Sur 0 995.2 2.1 84
2019-11-16 09:00:00 2.4 2 Sudoeste 8 Sudoeste 0 995 2.6 99
2019-11-16 08:00:00 1 4 Sur 11 Sur 0 994.2 2.2 99
2019-11-16 07:00:00 0.3 2 Noroeste 5 Noroeste 0 993.1 1.7 99
2019-11-16 06:00:00 0.2 0 Calma 5 Nordeste 0 992.4 1.5 98
2019-11-16 05:00:00 0.1 0 Calma 4 Norte 0 992 1.6 98
2019-11-16 04:00:00 0.4 4 Nordeste 5 Nordeste 0 991.4 1.4 97
2019-11-16 03:00:00 1.3 2 Nordeste 8 Nordeste 0 990.9 1.6 97
2019-11-16 02:00:00 2.4 4 Oeste 11 Noroeste 0 990.4 1.7 93
2019-11-16 01:00:00 2.9 5 Oeste 9 Oeste 0 990 2.2 92
2019-11-16 00:00:00 4.1 9 Nordeste 22 Norte 0 989.3 2.8 86